createdAt,value
2019-04-21T00:01:49.014Z,16.97
2019-04-21T00:04:30.870Z,16.12
2019-04-21T00:07:08.713Z,15.83
2019-04-21T00:09:50.687Z,16.00
2019-04-21T00:12:13.987Z,14.93
2019-04-21T00:14:34.911Z,15.78
2019-04-21T00:17:00.621Z,15.60
2019-04-21T00:19:35.713Z,15.32
2019-04-21T00:22:14.943Z,17.60
2019-04-21T00:24:51.682Z,16.20
2019-04-21T00:27:26.564Z,15.03
2019-04-21T00:29:58.487Z,16.82
2019-04-21T00:32:24.549Z,17.87
2019-04-21T00:34:48.425Z,19.95
2019-04-21T00:37:22.419Z,21.75
2019-04-21T00:40:06.153Z,22.60
2019-04-21T00:42:37.642Z,22.80
2019-04-21T00:45:02.078Z,22.45
2019-04-21T00:47:34.708Z,21.87
2019-04-21T00:50:14.343Z,20.00
2019-04-21T00:52:56.222Z,20.10
2019-04-21T00:55:32.251Z,18.80
2019-04-21T00:58:03.225Z,17.20
2019-04-21T01:00:32.440Z,17.73
2019-04-21T01:03:12.866Z,16.15
2019-04-21T01:05:41.099Z,16.82
2019-04-21T01:08:10.007Z,16.12
2019-04-21T01:10:31.976Z,16.77
2019-04-21T01:13:18.837Z,18.02
2019-04-21T01:18:16.470Z,18.10
2019-04-21T01:20:23.435Z,18.55
2019-04-21T01:22:53.736Z,17.60
2019-04-21T01:25:32.116Z,19.25
2019-04-21T01:28:16.992Z,17.90
2019-04-21T01:30:44.881Z,17.73
2019-04-21T01:33:24.835Z,17.75
2019-04-21T01:35:48.517Z,18.25
2019-04-21T01:38:21.635Z,18.10
2019-04-21T01:40:54.429Z,19.17
2019-04-21T01:43:24.897Z,18.07
2019-04-21T01:45:53.933Z,17.92
2019-04-21T01:48:19.553Z,18.85
2019-04-21T01:50:58.980Z,19.37
2019-04-21T01:53:38.230Z,17.55
2019-04-21T01:56:35.651Z,18.90
2019-04-21T01:58:53.832Z,19.50
2019-04-21T02:01:36.048Z,19.70
2019-04-21T02:04:12.592Z,19.20
2019-04-21T02:06:41.306Z,18.40
2019-04-21T02:09:05.116Z,20.45
2019-04-21T02:11:47.039Z,21.10
2019-04-21T02:14:15.741Z,21.65
2019-04-21T02:16:40.638Z,24.18
2019-04-21T02:19:11.638Z,24.18
2019-04-21T02:21:38.284Z,23.62
2019-04-21T02:24:23.583Z,23.60
2019-04-21T02:26:49.413Z,23.67
2019-04-21T02:29:23.023Z,23.40
2019-04-21T02:32:01.957Z,23.00
2019-04-21T02:34:37.477Z,22.40
2019-04-21T02:37:17.902Z,22.85
2019-04-21T02:39:43.346Z,22.07
2019-04-21T02:42:11.614Z,20.65
2019-04-21T02:44:42.868Z,20.32
2019-04-21T02:47:09.227Z,20.15
2019-04-21T02:52:23.737Z,20.52
2019-04-21T02:57:18.441Z,21.55
2019-04-21T03:02:46.778Z,38.02
2019-04-21T03:05:39.099Z,32.70
2019-04-21T03:08:03.625Z,25.85
2019-04-21T03:10:36.104Z,20.88
2019-04-21T03:13:10.835Z,19.30
2019-04-21T03:15:49.366Z,19.75
2019-04-21T03:18:06.308Z,20.00
2019-04-21T03:20:53.238Z,20.45
2019-04-21T03:28:14.293Z,19.75
2019-04-21T03:33:58.625Z,20.27
2019-04-21T03:36:13.280Z,20.12
2019-04-21T03:40:40.547Z,20.65
2019-04-21T03:43:20.916Z,20.40
2019-04-21T03:45:42.811Z,21.30
2019-04-21T03:48:17.307Z,21.45
2019-04-21T03:50:49.156Z,19.87
2019-04-21T03:53:26.522Z,21.35
2019-04-21T03:55:52.982Z,20.47
2019-04-21T04:01:28.111Z,20.30
2019-04-21T04:04:15.562Z,20.43
2019-04-21T04:06:55.587Z,21.60
2019-04-21T04:11:56.468Z,21.37
2019-04-21T04:14:33.446Z,22.30
2019-04-21T04:17:04.669Z,23.50
2019-04-21T04:27:11.163Z,23.95
2019-04-21T04:29:35.502Z,22.70
2019-04-21T04:32:04.956Z,24.82
2019-04-21T04:34:53.738Z,23.87
2019-04-21T04:37:30.381Z,23.83
2019-04-21T04:39:51.856Z,24.45
2019-04-21T04:45:05.866Z,21.85
2019-04-21T04:47:29.468Z,21.40
2019-04-21T04:55:17.142Z,21.17
2019-04-21T04:57:49.680Z,21.50
2019-04-21T05:00:22.005Z,21.80
2019-04-21T05:05:13.772Z,21.02
2019-04-21T05:07:52.361Z,20.63
2019-04-21T05:10:05.328Z,21.00
2019-04-21T05:12:38.784Z,20.80
2019-04-21T05:15:11.508Z,24.00
2019-04-21T05:17:46.344Z,24.03
2019-04-21T05:22:45.901Z,19.20
2019-04-21T05:25:03.504Z,20.90
2019-04-21T05:27:38.628Z,19.60
2019-04-21T05:30:28.489Z,19.80
2019-04-21T05:33:18.774Z,20.65
2019-04-21T05:35:57.353Z,20.43
2019-04-21T05:38:34.639Z,19.80
2019-04-21T05:41:02.469Z,19.80
2019-04-21T05:43:39.073Z,19.85
2019-04-21T05:46:12.429Z,21.23
2019-04-21T05:48:45.686Z,20.10
2019-04-21T05:51:18.424Z,20.25
2019-04-21T05:53:46.724Z,20.20
2019-04-21T05:56:25.702Z,21.63
2019-04-21T05:58:54.166Z,20.23
2019-04-21T06:01:40.824Z,19.60
2019-04-21T06:03:57.358Z,20.00
2019-04-21T06:06:33.782Z,20.55
2019-04-21T06:08:59.505Z,20.08
2019-04-21T06:11:33.035Z,19.60
2019-04-21T06:14:02.107Z,19.53
2019-04-21T06:16:36.475Z,19.50
2019-04-21T06:19:29.378Z,19.42
2019-04-21T06:21:35.725Z,20.10
2019-04-21T06:24:05.217Z,19.40
2019-04-21T06:29:09.098Z,20.37
2019-04-21T06:34:18.594Z,20.67
2019-04-21T06:36:56.659Z,21.00
2019-04-21T06:39:31.840Z,21.45
2019-04-21T06:41:59.834Z,20.85
2019-04-21T06:44:33.719Z,22.27
2019-04-21T06:47:06.246Z,21.07
2019-04-21T06:49:30.949Z,22.05
2019-04-21T06:52:18.052Z,21.53
2019-04-21T06:54:44.696Z,21.87
2019-04-21T06:57:08.678Z,21.12
2019-04-21T06:59:31.980Z,23.00
2019-04-21T07:04:46.936Z,21.12
2019-04-21T07:07:12.986Z,23.33
2019-04-21T07:09:50.503Z,20.70
2019-04-21T07:12:13.805Z,21.97
2019-04-21T07:14:42.077Z,20.64
2019-04-21T07:17:22.138Z,19.83
2019-04-21T07:22:24.571Z,19.65
2019-04-21T07:24:50.112Z,19.85
2019-04-21T07:27:24.133Z,19.93
2019-04-21T07:29:59.657Z,18.25
2019-04-21T07:32:29.862Z,19.85
2019-04-21T07:35:00.627Z,18.43
2019-04-21T07:37:33.540Z,20.40
2019-04-21T07:39:57.434Z,19.27
2019-04-21T07:42:24.294Z,18.48
2019-04-21T07:44:52.286Z,19.32
2019-04-21T07:47:39.598Z,19.35
2019-04-21T07:50:14.946Z,20.50
2019-04-21T07:52:58.158Z,20.37
2019-04-21T07:57:47.455Z,19.65
2019-04-21T08:00:30.873Z,20.77
2019-04-21T08:02:58.143Z,20.60
2019-04-21T08:05:26.414Z,20.88
2019-04-21T08:07:57.139Z,21.70
2019-04-21T08:10:30.015Z,22.22
2019-04-21T08:12:59.758Z,20.20
2019-04-21T08:15:34.234Z,21.00
2019-04-21T08:18:06.696Z,22.57
2019-04-21T08:20:34.899Z,22.67
2019-04-21T08:23:11.095Z,23.38
2019-04-21T08:25:45.959Z,23.60
2019-04-21T08:28:05.717Z,21.95
2019-04-21T08:30:57.527Z,21.87
2019-04-21T08:33:16.171Z,23.12
2019-04-21T08:36:03.309Z,23.20
2019-04-21T08:38:15.105Z,22.50
2019-04-21T08:40:47.953Z,22.55
2019-04-21T08:43:20.560Z,21.02
2019-04-21T08:45:46.823Z,20.30
2019-04-21T08:48:16.964Z,20.12
2019-04-21T08:51:06.342Z,19.57
2019-04-21T08:53:24.726Z,19.92
2019-04-21T08:56:21.444Z,19.87
2019-04-21T08:59:17.834Z,19.73
2019-04-21T09:02:04.263Z,20.00
2019-04-21T09:04:29.239Z,20.33
2019-04-21T09:09:34.026Z,21.90
2019-04-21T09:12:07.568Z,20.90
2019-04-21T09:14:36.869Z,20.23
2019-04-21T09:17:07.563Z,21.10
2019-04-21T09:19:51.029Z,21.10
2019-04-21T09:22:14.742Z,20.85
2019-04-21T09:24:42.704Z,19.60
2019-04-21T09:27:10.056Z,19.67
2019-04-21T09:29:35.889Z,19.87
2019-04-21T09:32:00.030Z,19.75
2019-04-21T09:34:35.923Z,18.07
2019-04-21T09:37:17.559Z,17.50
2019-04-21T09:39:33.368Z,18.25
2019-04-21T09:42:04.754Z,17.80
2019-04-21T09:44:40.004Z,16.40
2019-04-21T09:47:07.430Z,17.60
2019-04-21T09:49:38.016Z,16.77
2019-04-21T09:52:18.622Z,16.25
2019-04-21T09:54:49.363Z,15.77
2019-04-21T09:57:22.487Z,16.25
2019-04-21T09:59:49.037Z,16.20
2019-04-21T10:02:18.147Z,16.70
2019-04-21T10:04:46.109Z,15.60
2019-04-21T10:07:24.691Z,16.27
2019-04-21T10:09:47.906Z,15.10
2019-04-21T10:12:19.850Z,14.90
2019-04-21T10:14:49.554Z,14.03
2019-04-21T10:17:29.598Z,14.60
2019-04-21T10:19:59.175Z,13.17
2019-04-21T10:22:28.913Z,13.20
2019-04-21T10:24:58.542Z,13.00
2019-04-21T10:27:29.436Z,12.35
2019-04-21T10:29:59.082Z,12.60
2019-04-21T10:32:28.610Z,12.90
2019-04-21T10:34:59.203Z,12.73
2019-04-21T10:37:42.790Z,13.10
2019-04-21T10:40:01.130Z,13.05
2019-04-21T10:42:31.339Z,13.50
2019-04-21T10:45:01.127Z,12.68
2019-04-21T10:47:31.299Z,12.28
2019-04-21T10:50:00.827Z,11.68
2019-04-21T10:52:49.438Z,11.07
2019-04-21T10:55:36.728Z,11.03
2019-04-21T10:58:24.711Z,11.20
2019-04-21T11:01:10.599Z,10.60
2019-04-21T11:03:44.899Z,11.33
2019-04-21T11:06:16.952Z,10.98
2019-04-21T11:08:50.270Z,12.70
2019-04-21T11:11:17.821Z,11.33
2019-04-21T11:13:48.453Z,10.43
2019-04-21T11:16:19.182Z,11.07
2019-04-21T11:18:48.770Z,11.17
2019-04-21T11:21:18.814Z,11.50
2019-04-21T11:23:50.032Z,10.90
2019-04-21T11:26:20.061Z,11.38
2019-04-21T11:28:50.579Z,10.70
2019-04-21T11:31:20.936Z,11.40
2019-04-21T11:33:51.183Z,14.00
2019-04-21T11:36:21.634Z,10.88
2019-04-21T11:39:16.362Z,10.55
2019-04-21T11:41:31.938Z,11.15
2019-04-21T11:44:01.559Z,10.80
2019-04-21T11:46:31.288Z,10.50
2019-04-21T11:49:02.244Z,10.40
2019-04-21T11:51:33.304Z,10.68
2019-04-21T11:54:02.955Z,10.85
2019-04-21T11:56:32.771Z,11.10
2019-04-21T11:59:03.730Z,10.67
2019-04-21T12:01:33.789Z,14.00
2019-04-21T12:04:03.549Z,11.20
2019-04-21T12:06:40.920Z,10.50
2019-04-21T12:09:07.864Z,10.10
2019-04-21T12:11:38.998Z,10.00
2019-04-21T12:14:09.906Z,9.30
2019-04-21T12:16:41.203Z,10.20
2019-04-21T12:19:12.476Z,10.40
2019-04-21T12:21:54.619Z,10.53
2019-04-21T12:24:13.431Z,9.43
2019-04-21T12:26:44.148Z,10.65
2019-04-21T12:29:14.577Z,10.50
2019-04-21T12:31:55.260Z,10.93
2019-04-21T12:34:25.937Z,11.60
2019-04-21T12:36:56.959Z,11.43
2019-04-21T12:39:27.104Z,11.40
2019-04-21T12:41:56.857Z,11.93
2019-04-21T12:44:27.505Z,11.24
2019-04-21T12:46:59.763Z,11.90
2019-04-21T12:49:29.740Z,11.50
2019-04-21T12:51:59.682Z,12.50
2019-04-21T12:54:29.874Z,13.18
2019-04-21T12:57:01.285Z,11.90
2019-04-21T12:59:32.500Z,11.93
2019-04-21T13:02:03.249Z,10.80
2019-04-21T13:04:33.548Z,11.07
2019-04-21T13:07:03.700Z,11.70
2019-04-21T13:09:34.280Z,10.60
2019-04-21T13:12:04.934Z,11.00
2019-04-21T13:14:35.752Z,10.80
2019-04-21T13:17:05.647Z,10.27
2019-04-21T13:19:36.458Z,10.60
2019-04-21T13:22:06.154Z,9.80
2019-04-21T13:24:36.044Z,9.20
2019-04-21T13:27:07.464Z,9.73
2019-04-21T13:29:38.595Z,10.30
2019-04-21T13:32:09.346Z,10.05
2019-04-21T13:34:40.089Z,9.17
2019-04-21T13:37:09.856Z,8.67
2019-04-21T13:40:23.688Z,9.80
2019-04-21T13:42:37.935Z,8.40
2019-04-21T13:45:02.529Z,9.23
2019-04-21T13:47:32.509Z,8.40
2019-04-21T13:50:03.646Z,7.70
2019-04-21T13:52:33.568Z,9.00
2019-04-21T13:55:05.468Z,9.25
2019-04-21T13:57:36.481Z,8.90
2019-04-21T14:00:06.922Z,8.20
2019-04-21T14:02:36.676Z,8.30
2019-04-21T14:05:08.571Z,8.50
2019-04-21T14:07:38.534Z,8.20
2019-04-21T14:10:10.492Z,8.40
2019-04-21T14:12:40.514Z,8.43
2019-04-21T14:15:10.405Z,8.00
2019-04-21T14:17:39.946Z,8.90
2019-04-21T14:20:10.897Z,9.20
2019-04-21T14:22:42.120Z,8.70
2019-04-21T14:25:12.160Z,9.27
2019-04-21T14:27:41.911Z,8.63
2019-04-21T14:30:12.288Z,8.40
2019-04-21T14:32:42.131Z,9.10
2019-04-21T14:35:12.509Z,9.00
2019-04-21T14:37:42.542Z,9.70
2019-04-21T14:40:20.092Z,9.20
2019-04-21T14:42:44.929Z,9.30
2019-04-21T14:45:27.139Z,9.00
2019-04-21T14:48:23.209Z,9.50
2019-04-21T14:51:21.011Z,9.60
2019-04-21T14:54:03.717Z,9.73
2019-04-21T14:56:33.540Z,9.97
2019-04-21T14:59:05.310Z,9.00
2019-04-21T15:01:35.872Z,10.90
2019-04-21T15:04:05.941Z,11.13
2019-04-21T15:06:37.140Z,13.77
2019-04-21T15:09:07.671Z,11.00
2019-04-21T15:11:38.190Z,9.28
2019-04-21T15:14:08.135Z,9.15
2019-04-21T15:16:38.668Z,10.43
2019-04-21T15:19:08.639Z,12.30
2019-04-21T15:21:38.289Z,11.23
2019-04-21T15:24:08.674Z,17.87
2019-04-21T15:26:40.043Z,13.10
2019-04-21T15:29:10.817Z,11.60
2019-04-21T15:31:44.682Z,11.73
2019-04-21T15:34:13.182Z,10.60
2019-04-21T15:36:44.053Z,11.50
2019-04-21T15:39:13.975Z,10.40
2019-04-21T15:41:44.912Z,10.60
2019-04-21T15:44:14.678Z,9.83
2019-04-21T15:46:44.184Z,10.77
2019-04-21T15:49:14.971Z,11.35
2019-04-21T15:51:46.380Z,10.00
2019-04-21T15:54:16.526Z,11.80
2019-04-21T15:56:51.302Z,11.20
2019-04-21T15:59:30.607Z,10.50
2019-04-21T16:02:08.403Z,12.18
2019-04-21T16:04:38.931Z,10.83
2019-04-21T16:07:08.845Z,11.00
2019-04-21T16:09:39.846Z,10.50
2019-04-21T16:12:09.759Z,10.72
2019-04-21T16:14:40.677Z,10.10
2019-04-21T16:17:11.675Z,10.00
2019-04-21T16:19:41.673Z,9.67
2019-04-21T16:22:12.617Z,9.60
2019-04-21T16:24:43.890Z,9.98
2019-04-21T16:27:13.544Z,9.20
2019-04-21T16:29:43.857Z,8.03
2019-04-21T16:32:16.325Z,9.90
2019-04-21T16:34:50.986Z,10.30
2019-04-21T16:37:17.326Z,10.23
2019-04-21T16:39:47.453Z,10.27
2019-04-21T16:42:18.234Z,9.40
2019-04-21T16:44:48.917Z,10.17
2019-04-21T16:47:19.382Z,9.88
2019-04-21T16:49:49.863Z,10.10
2019-04-21T16:52:32.198Z,9.58
2019-04-21T16:55:19.088Z,9.55
2019-04-21T16:58:03.056Z,8.85
2019-04-21T17:00:35.060Z,12.73
2019-04-21T17:02:56.834Z,11.00
2019-04-21T17:05:27.813Z,10.53
2019-04-21T17:07:57.819Z,10.48
2019-04-21T17:10:28.710Z,10.10
2019-04-21T17:12:59.911Z,11.23
2019-04-21T17:15:50.682Z,10.00
2019-04-21T17:18:22.104Z,10.10
2019-04-21T17:20:41.813Z,10.97
2019-04-21T17:23:05.154Z,10.57
2019-04-21T17:25:36.814Z,9.67
2019-04-21T17:28:07.839Z,8.87
2019-04-21T17:30:37.711Z,10.03
2019-04-21T17:33:10.277Z,10.30
2019-04-21T17:35:40.790Z,10.00
2019-04-21T17:38:12.100Z,9.93
2019-04-21T17:40:42.207Z,10.72
2019-04-21T17:43:14.703Z,12.37
2019-04-21T17:45:43.242Z,16.30
2019-04-21T17:48:15.938Z,12.67
2019-04-21T17:51:19.160Z,12.73
2019-04-21T17:54:16.703Z,12.58
2019-04-21T17:57:20.218Z,11.50
2019-04-21T17:59:47.600Z,13.25
2019-04-21T18:01:59.451Z,14.13
2019-04-21T18:04:37.803Z,13.28
2019-04-21T18:07:18.946Z,15.98
2019-04-21T18:09:56.550Z,12.28
2019-04-21T18:12:22.605Z,12.95
2019-04-21T18:14:51.282Z,11.97
2019-04-21T18:17:10.716Z,10.93
2019-04-21T18:19:43.655Z,12.25
2019-04-21T18:22:34.779Z,10.78
2019-04-21T18:25:06.975Z,10.23
2019-04-21T18:27:34.436Z,12.25
2019-04-21T18:30:24.342Z,22.07
2019-04-21T18:32:57.028Z,30.47
2019-04-21T18:35:36.010Z,25.53
2019-04-21T18:38:13.901Z,45.23
2019-04-21T18:40:42.354Z,13.30
2019-04-21T18:46:29.521Z,10.70
2019-04-21T18:48:51.530Z,11.17
2019-04-21T18:51:34.650Z,10.80
2019-04-21T18:54:26.708Z,11.00
2019-04-21T18:56:37.042Z,11.57
2019-04-21T18:59:06.933Z,10.50
2019-04-21T19:01:38.426Z,10.00
2019-04-21T19:04:14.318Z,9.90
2019-04-21T19:06:55.594Z,10.28
2019-04-21T19:09:35.603Z,12.30
2019-04-21T19:11:59.195Z,15.37
2019-04-21T19:14:36.333Z,18.00
2019-04-21T19:17:15.914Z,14.30
2019-04-21T19:22:11.916Z,14.68
2019-04-21T19:27:20.859Z,21.25
2019-04-21T19:29:56.152Z,20.27
2019-04-21T19:32:21.477Z,15.43
2019-04-21T19:34:35.913Z,14.63
2019-04-21T19:37:09.290Z,13.60
2019-04-21T19:39:45.942Z,13.20
2019-04-21T19:42:16.939Z,15.00
2019-04-21T19:44:52.189Z,17.30
2019-04-21T19:47:28.243Z,16.30
2019-04-21T19:50:01.451Z,18.15
2019-04-21T19:52:25.567Z,21.13
2019-04-21T19:54:44.910Z,16.37
2019-04-21T19:57:16.666Z,20.75
2019-04-21T19:59:52.036Z,17.57
2019-04-21T20:02:20.486Z,16.13
2019-04-21T20:04:58.927Z,14.37
2019-04-21T20:07:37.799Z,18.62
2019-04-21T20:10:14.309Z,15.87
2019-04-21T20:12:55.628Z,19.83
2019-04-21T20:15:20.314Z,13.18
2019-04-21T20:17:43.808Z,13.67
2019-04-21T20:19:58.321Z,11.93
2019-04-21T20:22:34.883Z,15.50
2019-04-21T20:25:07.721Z,11.18
2019-04-21T20:27:38.580Z,10.80
2019-04-21T20:30:21.674Z,9.00
2019-04-21T20:32:55.982Z,8.80
2019-04-21T20:35:35.009Z,8.30
2019-04-21T20:37:55.065Z,9.20
2019-04-21T20:40:22.781Z,9.00
2019-04-21T20:42:58.880Z,8.23
2019-04-21T20:45:36.170Z,8.05
2019-04-21T20:47:50.692Z,11.60
2019-04-21T20:50:33.461Z,8.63
2019-04-21T20:53:06.081Z,11.10
2019-04-21T20:55:30.262Z,9.40
2019-04-21T20:58:04.160Z,8.90
2019-04-21T21:00:49.082Z,9.57
2019-04-21T21:03:13.499Z,19.90
2019-04-21T21:05:39.886Z,22.70
2019-04-21T21:08:18.001Z,18.15
2019-04-21T21:10:45.801Z,12.83
2019-04-21T21:13:26.696Z,10.93
2019-04-21T21:16:06.197Z,13.58
2019-04-21T21:18:38.534Z,12.15
2019-04-21T21:20:56.039Z,11.57
2019-04-21T21:23:24.099Z,13.32
2019-04-21T21:26:00.627Z,13.43
2019-04-21T21:28:27.681Z,9.70
2019-04-21T21:30:59.387Z,8.75
2019-04-21T21:33:27.404Z,8.88
2019-04-21T21:36:06.441Z,8.70
2019-04-21T21:38:30.960Z,8.27
2019-04-21T21:40:58.741Z,8.60
2019-04-21T21:43:22.888Z,9.00
2019-04-21T21:45:55.327Z,9.20
2019-04-21T21:48:33.171Z,9.08
2019-04-21T21:51:02.244Z,8.70
2019-04-21T21:53:28.847Z,8.63
2019-04-21T21:55:56.723Z,9.25
2019-04-21T21:58:33.108Z,8.20
2019-04-21T22:01:02.656Z,8.58
2019-04-21T22:03:34.197Z,9.10
2019-04-21T22:06:07.794Z,8.57
2019-04-21T22:08:34.242Z,9.53
2019-04-21T22:11:05.455Z,9.60
2019-04-21T22:13:46.169Z,9.00
2019-04-21T22:16:10.676Z,9.30
2019-04-21T22:19:03.509Z,9.90
2019-04-21T22:21:21.559Z,8.80
2019-04-21T22:23:51.627Z,8.53
2019-04-21T22:26:11.534Z,8.50
2019-04-21T22:28:41.061Z,9.00
2019-04-21T22:31:15.069Z,8.18
2019-04-21T22:33:49.477Z,7.67
2019-04-21T22:36:26.435Z,7.70
2019-04-21T22:39:07.428Z,8.43
2019-04-21T22:41:26.615Z,9.33
2019-04-21T22:43:49.966Z,9.50
2019-04-21T22:46:18.343Z,8.27
2019-04-21T22:48:53.185Z,8.43
2019-04-21T22:51:28.437Z,8.65
2019-04-21T22:53:53.914Z,8.83
2019-04-21T22:56:27.020Z,8.70
2019-04-21T22:58:53.162Z,8.23
2019-04-21T23:01:28.550Z,9.28
2019-04-21T23:03:59.231Z,8.93
2019-04-21T23:06:28.939Z,8.15
2019-04-21T23:08:57.143Z,8.55
2019-04-21T23:11:29.364Z,8.60
2019-04-21T23:14:04.242Z,8.50
2019-04-21T23:16:33.723Z,8.53
2019-04-21T23:19:21.196Z,8.25
2019-04-21T23:21:53.751Z,8.80
2019-04-21T23:24:25.207Z,9.03
2019-04-21T23:26:48.632Z,8.03
2019-04-21T23:29:25.793Z,8.68
2019-04-21T23:31:55.085Z,8.40
2019-04-21T23:34:10.866Z,9.00
2019-04-21T23:36:48.202Z,8.30
2019-04-21T23:39:15.674Z,8.88
2019-04-21T23:41:50.617Z,8.70
2019-04-21T23:44:15.148Z,7.83
2019-04-21T23:46:45.777Z,9.20
2019-04-21T23:49:30.624Z,8.78
2019-04-21T23:51:54.661Z,9.20
2019-04-21T23:54:17.858Z,8.70
2019-04-21T23:56:47.870Z,9.70
2019-04-21T23:59:18.033Z,9.13
